createdAt,value
2019-03-18T00:02:19.679Z,1.50
2019-03-18T00:04:54.321Z,3.63
2019-03-18T00:07:23.890Z,1.27
2019-03-18T00:09:53.201Z,1.50
2019-03-18T00:12:26.488Z,1.60
2019-03-18T00:15:01.253Z,2.53
2019-03-18T00:17:27.619Z,3.83
2019-03-18T00:19:57.080Z,1.90
2019-03-18T00:22:27.028Z,4.37
2019-03-18T00:24:56.842Z,1.95
2019-03-18T00:27:26.408Z,1.80
2019-03-18T00:29:56.406Z,1.50
2019-03-18T00:32:28.735Z,1.67
2019-03-18T00:34:58.034Z,2.05
2019-03-18T00:37:27.527Z,2.95
2019-03-18T00:39:56.977Z,2.45
2019-03-18T00:42:26.327Z,7.00
2019-03-18T00:44:55.757Z,1.62
2019-03-18T00:47:25.101Z,2.30
2019-03-18T00:49:54.291Z,3.60
2019-03-18T00:52:23.551Z,3.10
2019-03-18T00:54:52.888Z,3.70
2019-03-18T00:57:22.277Z,2.08
2019-03-18T00:59:51.545Z,3.25
2019-03-18T01:02:20.894Z,4.80
2019-03-18T01:04:50.198Z,2.50
2019-03-18T01:07:19.838Z,2.50
2019-03-18T01:09:51.908Z,3.75
2019-03-18T01:12:21.449Z,2.02
2019-03-18T01:14:50.846Z,2.02
2019-03-18T01:17:21.183Z,2.20
2019-03-18T01:19:50.908Z,2.25
2019-03-18T01:22:20.334Z,3.15
2019-03-18T01:24:49.856Z,2.30
2019-03-18T01:27:19.120Z,2.42
2019-03-18T01:29:48.499Z,2.47
2019-03-18T01:32:18.292Z,2.70
2019-03-18T01:34:47.635Z,3.58
2019-03-18T01:37:16.855Z,5.58
2019-03-18T01:39:46.090Z,2.62
2019-03-18T01:42:16.854Z,8.40
2019-03-18T01:44:46.678Z,3.15
2019-03-18T01:47:19.268Z,5.60
2019-03-18T01:49:48.607Z,4.97
2019-03-18T01:52:17.952Z,6.83
2019-03-18T01:54:47.395Z,9.10
2019-03-18T01:57:16.717Z,5.60
2019-03-18T01:59:46.106Z,5.80
2019-03-18T02:02:15.426Z,5.37
2019-03-18T02:04:44.781Z,9.33
2019-03-18T02:07:14.624Z,12.03
2019-03-18T02:09:43.953Z,4.77
2019-03-18T02:12:13.563Z,6.30
2019-03-18T02:14:42.879Z,7.53
2019-03-18T02:17:12.856Z,6.97
2019-03-18T02:19:42.154Z,9.40
2019-03-18T02:22:11.616Z,8.17
2019-03-18T02:24:40.916Z,8.17
2019-03-18T02:27:10.481Z,6.92
2019-03-18T02:29:39.843Z,5.47
2019-03-18T02:32:09.195Z,8.23
2019-03-18T02:34:38.760Z,6.80
2019-03-18T02:37:08.511Z,7.77
2019-03-18T02:39:37.834Z,7.33
2019-03-18T02:42:07.240Z,7.40
2019-03-18T02:44:36.550Z,6.00
2019-03-18T02:47:05.866Z,5.10
2019-03-18T02:49:35.516Z,4.87
2019-03-18T02:52:05.067Z,4.57
2019-03-18T02:54:34.702Z,7.47
2019-03-18T02:57:03.966Z,5.07
2019-03-18T02:59:33.378Z,6.17
2019-03-18T03:02:04.582Z,6.50
2019-03-18T03:04:34.267Z,6.40
2019-03-18T03:07:03.628Z,6.70
2019-03-18T03:09:33.282Z,7.13
2019-03-18T03:12:02.649Z,7.10
2019-03-18T03:14:32.110Z,5.67
2019-03-18T03:17:02.037Z,5.97
2019-03-18T03:19:31.737Z,8.37
2019-03-18T03:22:01.153Z,7.50
2019-03-18T03:24:30.494Z,7.30
2019-03-18T03:27:00.335Z,7.73
2019-03-18T03:29:29.916Z,6.70
2019-03-18T03:31:59.270Z,4.57
2019-03-18T03:34:28.635Z,6.17
2019-03-18T03:36:57.993Z,7.93
2019-03-18T03:39:27.372Z,7.30
2019-03-18T03:41:59.766Z,8.80
2019-03-18T03:44:28.988Z,4.92
2019-03-18T03:46:58.301Z,9.33
2019-03-18T03:49:28.334Z,6.40
2019-03-18T03:51:57.661Z,5.83
2019-03-18T03:54:28.062Z,6.43
2019-03-18T03:56:57.631Z,7.70
2019-03-18T03:59:27.367Z,7.30
2019-03-18T04:01:57.100Z,6.73
2019-03-18T04:04:28.267Z,11.50
2019-03-18T04:06:58.081Z,9.23
2019-03-18T04:09:27.697Z,7.60
2019-03-18T04:11:57.593Z,13.50
2019-03-18T04:14:26.915Z,7.73
2019-03-18T04:17:04.265Z,6.97
2019-03-18T04:19:29.879Z,7.17
2019-03-18T04:21:59.301Z,7.22
2019-03-18T04:24:28.531Z,10.37
2019-03-18T04:26:58.151Z,10.40
2019-03-18T04:29:27.905Z,7.53
2019-03-18T04:31:57.420Z,10.82
2019-03-18T04:34:26.773Z,10.00
2019-03-18T04:36:56.373Z,9.40
2019-03-18T04:39:25.878Z,10.57
2019-03-18T04:41:55.157Z,8.85
2019-03-18T04:44:25.555Z,9.83
2019-03-18T04:46:55.139Z,9.60
2019-03-18T04:49:24.427Z,8.67
2019-03-18T04:51:53.727Z,15.43
2019-03-18T04:54:22.947Z,11.90
2019-03-18T04:56:52.525Z,10.95
2019-03-18T04:59:21.844Z,9.60
2019-03-18T05:01:51.402Z,9.90
2019-03-18T05:04:20.656Z,10.60
2019-03-18T05:06:50.102Z,10.60
2019-03-18T05:09:19.803Z,9.20
2019-03-18T05:11:49.208Z,13.25
2019-03-18T05:14:18.512Z,12.80
2019-03-18T05:16:50.731Z,9.98
2019-03-18T05:19:20.102Z,10.25
2019-03-18T05:21:54.331Z,11.78
2019-03-18T05:24:23.638Z,10.60
2019-03-18T05:26:53.150Z,12.03
2019-03-18T05:29:25.691Z,12.40
2019-03-18T05:32:00.713Z,9.60
2019-03-18T05:34:29.936Z,14.23
2019-03-18T05:37:00.154Z,11.68
2019-03-18T05:39:32.775Z,13.10
2019-03-18T05:42:04.378Z,12.00
2019-03-18T05:44:33.942Z,13.55
2019-03-18T05:47:03.496Z,10.68
2019-03-18T05:49:33.116Z,11.90
2019-03-18T05:52:13.092Z,10.13
2019-03-18T05:54:42.969Z,17.40
2019-03-18T05:57:12.894Z,16.48
2019-03-18T05:59:42.349Z,15.25
2019-03-18T06:02:13.357Z,10.17
2019-03-18T06:04:43.945Z,12.00
2019-03-18T06:07:16.202Z,10.15
2019-03-18T06:09:45.513Z,9.25
2019-03-18T06:12:14.974Z,13.45
2019-03-18T06:14:49.258Z,14.00
2019-03-18T06:17:16.147Z,11.45
2019-03-18T06:19:45.601Z,12.97
2019-03-18T06:22:15.196Z,10.00
2019-03-18T06:24:47.898Z,10.57
2019-03-18T06:27:17.187Z,10.82
2019-03-18T06:29:46.563Z,8.80
2019-03-18T06:32:15.850Z,9.67
2019-03-18T06:34:45.648Z,8.60
2019-03-18T06:37:14.875Z,8.50
2019-03-18T06:39:44.175Z,12.88
2019-03-18T06:42:13.413Z,11.53
2019-03-18T06:44:42.746Z,10.00
2019-03-18T06:47:12.089Z,10.97
2019-03-18T06:49:41.332Z,10.00
2019-03-18T06:52:10.620Z,8.57
2019-03-18T06:54:39.961Z,7.13
2019-03-18T06:57:09.523Z,10.18
2019-03-18T06:59:38.881Z,11.60
2019-03-18T07:02:08.654Z,9.70
2019-03-18T07:04:49.278Z,11.43
2019-03-18T07:07:32.849Z,13.20
2019-03-18T07:10:08.669Z,10.57
2019-03-18T07:13:01.309Z,11.63
2019-03-18T07:15:31.085Z,10.57
2019-03-18T07:18:59.579Z,15.07
2019-03-18T07:22:05.878Z,10.47
2019-03-18T07:24:59.967Z,9.73
2019-03-18T07:34:45.540Z,8.80
2019-03-18T07:40:28.110Z,8.23
2019-03-18T07:45:48.125Z,9.10
2019-03-18T07:48:34.818Z,11.43
2019-03-18T07:51:04.138Z,14.30
2019-03-18T07:53:41.856Z,10.73
2019-03-18T07:56:13.021Z,13.08
2019-03-18T07:58:47.278Z,9.83
2019-03-18T08:01:16.562Z,10.43
2019-03-18T08:03:45.804Z,8.17
2019-03-18T08:06:15.963Z,7.63
2019-03-18T08:11:52.067Z,8.73
2019-03-18T08:14:54.004Z,8.57
2019-03-18T08:17:55.215Z,11.60
2019-03-18T08:20:26.505Z,7.47
2019-03-18T08:22:58.215Z,10.03
2019-03-18T08:25:30.320Z,9.07
2019-03-18T08:28:05.602Z,10.93
2019-03-18T08:31:00.741Z,13.47
2019-03-18T08:33:33.209Z,5.77
2019-03-18T08:36:04.006Z,6.90
2019-03-18T08:38:35.997Z,10.00
2019-03-18T08:41:09.609Z,8.43
2019-03-18T08:43:38.909Z,11.70
2019-03-18T08:46:31.302Z,6.67
2019-03-18T08:49:04.502Z,11.67
2019-03-18T09:02:18.232Z,8.00
2019-03-18T09:05:24.515Z,5.90
2019-03-18T09:08:03.547Z,5.20
2019-03-18T09:13:31.954Z,6.67
2019-03-18T09:16:31.447Z,6.05
2019-03-18T09:19:32.705Z,7.90
2019-03-18T09:25:23.866Z,8.03
2019-03-18T09:27:53.315Z,7.20
2019-03-18T09:30:23.171Z,6.70
2019-03-18T09:32:52.523Z,5.20
2019-03-18T09:35:25.062Z,5.20
2019-03-18T09:37:55.129Z,6.13
2019-03-18T09:40:24.626Z,6.63
2019-03-18T09:42:54.520Z,10.83
2019-03-18T09:45:23.991Z,6.53
2019-03-18T09:47:56.286Z,6.62
2019-03-18T09:50:25.464Z,7.27
2019-03-18T09:52:55.547Z,4.53
2019-03-18T09:55:25.100Z,4.10
2019-03-18T09:57:55.055Z,5.60
2019-03-18T10:00:24.773Z,3.77
2019-03-18T10:02:54.318Z,2.07
2019-03-18T10:05:24.123Z,3.00
2019-03-18T10:07:53.326Z,2.33
2019-03-18T10:10:23.980Z,3.50
2019-03-18T10:12:53.215Z,3.90
2019-03-18T10:15:22.458Z,5.47
2019-03-18T10:17:51.691Z,2.70
2019-03-18T10:20:21.199Z,1.70
2019-03-18T10:22:50.509Z,1.80
2019-03-18T10:25:19.743Z,1.93
2019-03-18T10:27:49.035Z,2.57
2019-03-18T10:30:18.468Z,1.67
2019-03-18T10:32:47.955Z,2.43
2019-03-18T10:35:17.651Z,4.62
2019-03-18T10:37:47.810Z,3.50
2019-03-18T10:40:17.490Z,3.70
2019-03-18T10:42:47.892Z,4.00
2019-03-18T10:45:17.405Z,2.40
2019-03-18T10:47:46.610Z,3.10
2019-03-18T10:50:15.865Z,3.13
2019-03-18T10:52:45.413Z,4.67
2019-03-18T10:55:14.817Z,4.22
2019-03-18T10:57:44.074Z,2.80
2019-03-18T11:00:13.701Z,3.37
2019-03-18T11:02:44.974Z,2.52
2019-03-18T11:05:14.990Z,2.95
2019-03-18T11:07:44.776Z,3.95
2019-03-18T11:10:14.126Z,3.30
2019-03-18T11:12:43.682Z,5.17
2019-03-18T11:15:38.474Z,3.17
2019-03-18T11:18:14.414Z,5.50
2019-03-18T11:20:53.265Z,2.10
2019-03-18T11:23:35.714Z,9.53
2019-03-18T11:26:20.176Z,3.00
2019-03-18T11:28:55.393Z,5.28
2019-03-18T11:32:10.537Z,2.80
2019-03-18T11:34:43.083Z,3.23
2019-03-18T11:37:12.584Z,3.55
2019-03-18T11:39:41.810Z,2.73
2019-03-18T11:42:14.423Z,4.63
2019-03-18T11:44:44.416Z,8.75
2019-03-18T11:47:13.587Z,1.70
2019-03-18T11:49:43.134Z,3.37
2019-03-18T11:52:43.243Z,2.17
2019-03-18T11:55:16.817Z,2.20
2019-03-18T11:57:46.270Z,1.70
2019-03-18T12:00:29.109Z,2.43
2019-03-18T12:03:21.850Z,1.10
2019-03-18T12:05:54.255Z,2.40
2019-03-18T12:09:30.279Z,1.27
2019-03-18T12:12:20.956Z,3.53
2019-03-18T12:15:10.887Z,1.25
2019-03-18T12:21:26.937Z,1.95
2019-03-18T12:24:34.738Z,2.00
2019-03-18T12:27:04.470Z,3.97
2019-03-18T12:29:34.008Z,2.63
2019-03-18T12:32:03.427Z,1.40
2019-03-18T12:34:33.025Z,1.35
2019-03-18T12:37:05.020Z,2.50
2019-03-18T12:39:36.504Z,2.03
2019-03-18T12:42:05.994Z,1.40
2019-03-18T12:44:36.049Z,1.65
2019-03-18T12:47:05.537Z,2.90
2019-03-18T12:49:35.169Z,2.07
2019-03-18T12:52:25.369Z,1.80
2019-03-18T12:55:04.364Z,2.90
2019-03-18T12:58:04.413Z,6.70
2019-03-18T13:13:03.085Z,1.80
2019-03-18T13:15:43.053Z,1.73
2019-03-18T13:18:50.900Z,1.43
2019-03-18T13:21:20.360Z,3.95
2019-03-18T13:24:08.716Z,2.40
2019-03-18T13:26:38.140Z,1.53
2019-03-18T13:29:28.621Z,2.40
2019-03-18T13:31:57.899Z,1.40
2019-03-18T13:34:27.523Z,1.50
2019-03-18T13:37:33.353Z,4.15
2019-03-18T13:40:08.318Z,1.37
2019-03-18T13:42:37.613Z,1.57
2019-03-18T13:45:08.324Z,2.33
2019-03-18T13:47:37.662Z,2.30
2019-03-18T13:50:08.761Z,4.20
2019-03-18T13:52:38.169Z,1.80
2019-03-18T13:55:07.763Z,2.33
2019-03-18T13:57:37.100Z,3.37
2019-03-18T14:00:08.865Z,3.53
2019-03-18T14:02:38.168Z,3.85
2019-03-18T14:05:08.396Z,3.43
2019-03-18T14:07:37.719Z,2.30
2019-03-18T14:10:10.263Z,2.63
2019-03-18T14:12:39.424Z,2.83
2019-03-18T14:15:11.943Z,2.25
2019-03-18T14:17:43.130Z,3.85
2019-03-18T14:20:17.292Z,2.90
2019-03-18T14:22:55.413Z,3.90
2019-03-18T14:25:30.640Z,2.07
2019-03-18T14:28:49.616Z,1.60
2019-03-18T14:31:18.958Z,6.50
2019-03-18T14:33:53.963Z,2.60
2019-03-18T14:36:23.624Z,4.05
2019-03-18T14:38:52.984Z,3.67
2019-03-18T14:41:22.528Z,3.47
2019-03-18T14:43:51.779Z,1.57
2019-03-18T14:46:21.092Z,2.33
2019-03-18T14:48:50.296Z,3.00
2019-03-18T14:51:19.620Z,2.63
2019-03-18T14:53:48.889Z,2.40
2019-03-18T14:56:18.239Z,2.85
2019-03-18T14:58:47.563Z,1.47
2019-03-18T15:01:16.895Z,3.07
2019-03-18T15:03:46.184Z,3.20
2019-03-18T15:06:15.516Z,1.80
2019-03-18T15:08:44.763Z,2.17
2019-03-18T15:11:14.673Z,6.30
2019-03-18T15:13:44.491Z,5.73
2019-03-18T15:16:14.055Z,4.40
2019-03-18T15:18:43.343Z,6.20
2019-03-18T15:21:12.724Z,1.93
2019-03-18T15:23:42.723Z,1.93
2019-03-18T15:26:12.061Z,2.20
2019-03-18T15:28:41.638Z,1.60
2019-03-18T15:31:10.975Z,1.70
2019-03-18T15:33:56.030Z,2.27
2019-03-18T15:36:25.143Z,2.42
2019-03-18T15:38:54.479Z,1.50
2019-03-18T15:41:29.560Z,2.27
2019-03-18T15:43:58.383Z,2.30
2019-03-18T15:46:41.217Z,3.50
2019-03-18T15:49:10.527Z,2.47
2019-03-18T15:51:40.974Z,2.50
2019-03-18T15:54:09.897Z,2.60
2019-03-18T15:56:39.134Z,3.87
2019-03-18T15:59:12.471Z,2.20
2019-03-18T16:01:45.009Z,3.00
2019-03-18T16:04:13.996Z,3.10
2019-03-18T16:06:44.198Z,4.93
2019-03-18T16:09:12.969Z,3.07
2019-03-18T16:11:44.154Z,2.93
2019-03-18T16:14:13.078Z,2.30
2019-03-18T16:16:42.504Z,5.90
2019-03-18T16:19:13.310Z,1.33
2019-03-18T16:21:45.787Z,2.90
2019-03-18T16:24:17.055Z,1.60
2019-03-18T16:26:48.525Z,3.45
2019-03-18T16:29:17.564Z,3.40
2019-03-18T16:31:46.332Z,1.90
2019-03-18T16:34:15.688Z,2.00
2019-03-18T16:36:46.906Z,4.15
2019-03-18T16:39:15.874Z,3.07
2019-03-18T16:41:44.671Z,3.25
2019-03-18T16:44:14.706Z,4.07
2019-03-18T16:46:46.576Z,1.60
2019-03-18T16:49:16.015Z,3.80
2019-03-18T16:51:44.860Z,2.33
2019-03-18T16:54:14.440Z,5.45
2019-03-18T16:56:43.376Z,6.20
2019-03-18T16:59:12.018Z,2.70
2019-03-18T17:01:43.019Z,5.60
2019-03-18T17:05:08.042Z,3.00
2019-03-18T17:07:34.099Z,1.80
2019-03-18T17:10:02.833Z,3.00
2019-03-18T17:12:31.582Z,6.80
2019-03-18T17:15:00.390Z,2.50
2019-03-18T17:17:29.092Z,2.90
2019-03-18T17:19:57.969Z,3.30
2019-03-18T17:22:26.720Z,5.07
2019-03-18T17:24:55.431Z,9.97
2019-03-18T17:27:24.510Z,2.83
2019-03-18T17:29:54.181Z,4.80
2019-03-18T17:32:23.254Z,5.33
2019-03-18T17:34:51.971Z,3.43
2019-03-18T17:37:20.640Z,2.20
2019-03-18T17:39:49.320Z,3.33
2019-03-18T17:42:18.089Z,6.73
2019-03-18T17:44:46.743Z,4.50
2019-03-18T17:47:15.435Z,4.75
2019-03-18T17:49:44.091Z,5.13
2019-03-18T17:52:12.818Z,10.17
2019-03-18T17:54:44.615Z,7.17
2019-03-18T17:57:13.007Z,4.33
2019-03-18T17:59:42.295Z,4.05
2019-03-18T18:02:11.637Z,5.33
2019-03-18T18:04:40.968Z,7.47
2019-03-18T18:07:10.547Z,4.03
2019-03-18T18:09:39.878Z,4.17
2019-03-18T18:12:09.892Z,7.00
2019-03-18T18:14:39.757Z,5.37
2019-03-18T18:17:09.404Z,4.15
2019-03-18T18:19:38.740Z,6.10
2019-03-18T18:22:08.026Z,9.30
2019-03-18T18:24:37.312Z,5.53
2019-03-18T18:27:06.958Z,8.17
2019-03-18T18:29:36.186Z,6.70
2019-03-18T18:32:05.901Z,9.20
2019-03-18T18:34:35.483Z,6.17
2019-03-18T18:37:04.803Z,6.33
2019-03-18T18:39:34.128Z,10.32
2019-03-18T18:42:03.500Z,7.37
2019-03-18T18:44:32.994Z,7.33
2019-03-18T18:47:02.252Z,8.00
2019-03-18T18:49:31.575Z,7.93
2019-03-18T18:52:00.784Z,6.73
2019-03-18T18:54:30.097Z,7.17
2019-03-18T18:56:59.410Z,7.70
2019-03-18T18:59:29.401Z,5.73
2019-03-18T19:01:58.678Z,9.23
2019-03-18T19:04:29.367Z,3.73
2019-03-18T19:06:58.678Z,12.40
2019-03-18T19:09:28.053Z,6.73
2019-03-18T19:11:57.207Z,5.83
2019-03-18T19:14:26.461Z,4.33
2019-03-18T19:16:56.406Z,3.93
2019-03-18T19:19:25.687Z,6.90
2019-03-18T19:21:55.003Z,5.70
2019-03-18T19:24:24.291Z,9.80
2019-03-18T19:26:53.864Z,6.90
2019-03-18T19:29:23.245Z,7.85
2019-03-18T19:31:52.878Z,7.53
2019-03-18T19:34:26.677Z,7.00
2019-03-18T19:36:56.002Z,8.40
2019-03-18T19:39:25.196Z,7.57
2019-03-18T19:41:57.101Z,6.67
2019-03-18T19:44:26.599Z,7.40
2019-03-18T19:46:55.880Z,8.10
2019-03-18T19:49:25.168Z,8.03
2019-03-18T19:51:54.469Z,7.17
2019-03-18T19:54:23.812Z,8.77
2019-03-18T19:56:54.096Z,14.93
2019-03-18T19:59:23.406Z,26.57
2019-03-18T20:01:52.852Z,7.33
2019-03-18T20:04:22.113Z,5.70
2019-03-18T20:06:51.520Z,8.40
2019-03-18T20:09:21.034Z,4.80
2019-03-18T20:11:50.527Z,9.38
2019-03-18T20:14:21.945Z,5.17
2019-03-18T20:16:51.194Z,6.20
2019-03-18T20:19:20.952Z,7.13
2019-03-18T20:21:50.270Z,6.45
2019-03-18T20:24:19.568Z,7.97
2019-03-18T20:26:49.078Z,5.83
2019-03-18T20:29:18.682Z,4.43
2019-03-18T20:31:47.962Z,9.33
2019-03-18T20:34:17.640Z,14.78
2019-03-18T20:36:46.979Z,8.00
2019-03-18T20:39:16.241Z,8.13
2019-03-18T20:41:45.509Z,10.27
2019-03-18T20:44:14.892Z,8.07
2019-03-18T20:46:44.617Z,7.53
2019-03-18T20:49:14.208Z,8.97
2019-03-18T20:51:43.537Z,6.03
2019-03-18T20:54:12.804Z,23.47
2019-03-18T20:56:42.127Z,18.17
2019-03-18T20:59:11.437Z,29.33
2019-03-18T21:01:40.638Z,11.20
2019-03-18T21:04:10.277Z,32.00
2019-03-18T21:06:39.553Z,32.13
2019-03-18T21:09:08.826Z,20.30
2019-03-18T21:11:38.147Z,13.07
2019-03-18T21:14:07.786Z,11.17
2019-03-18T21:16:37.057Z,17.27
2019-03-18T21:19:06.276Z,9.83
2019-03-18T21:21:35.525Z,10.30
2019-03-18T21:24:04.780Z,14.97
2019-03-18T21:26:34.271Z,14.83
2019-03-18T21:29:03.541Z,13.10
2019-03-18T21:31:32.872Z,8.63
2019-03-18T21:34:02.387Z,12.50
2019-03-18T21:36:37.837Z,13.07
2019-03-18T21:39:03.241Z,12.93
2019-03-18T21:41:32.535Z,10.63
2019-03-18T21:44:01.894Z,8.03
2019-03-18T21:46:31.175Z,9.18
2019-03-18T21:49:00.472Z,11.60
2019-03-18T21:51:29.863Z,9.68
2019-03-18T21:54:00.129Z,9.70
2019-03-18T21:56:29.660Z,9.17
2019-03-18T21:58:59.075Z,7.50
2019-03-18T22:01:28.808Z,9.37
2019-03-18T22:03:58.369Z,10.23
2019-03-18T22:06:28.384Z,7.40
2019-03-18T22:08:57.951Z,9.30
2019-03-18T22:11:40.599Z,9.43
2019-03-18T22:14:07.139Z,10.80
2019-03-18T22:16:46.827Z,6.93
2019-03-18T22:19:19.689Z,6.90
2019-03-18T22:21:52.642Z,8.70
2019-03-18T22:24:26.722Z,12.10
2019-03-18T22:26:56.091Z,9.17
2019-03-18T22:29:25.710Z,10.27
2019-03-18T22:31:54.981Z,11.93
2019-03-18T22:34:24.266Z,13.30
2019-03-18T22:36:53.542Z,15.33
2019-03-18T22:39:22.911Z,20.83
2019-03-18T22:41:53.314Z,14.78
2019-03-18T22:44:22.960Z,13.80
2019-03-18T22:46:52.348Z,12.47
2019-03-18T22:49:21.626Z,20.10
2019-03-18T22:51:52.965Z,13.80
2019-03-18T22:54:22.253Z,12.30
2019-03-18T22:56:51.604Z,14.73
2019-03-18T22:59:21.061Z,14.50
2019-03-18T23:01:50.971Z,14.75
2019-03-18T23:04:21.535Z,10.97
2019-03-18T23:06:50.785Z,13.30
2019-03-18T23:09:26.741Z,10.93
2019-03-18T23:11:56.100Z,15.50
2019-03-18T23:14:25.334Z,12.67
2019-03-18T23:16:56.198Z,12.30
2019-03-18T23:19:25.796Z,20.70
2019-03-18T23:21:55.161Z,8.98
2019-03-18T23:24:25.425Z,13.53
2019-03-18T23:26:54.925Z,12.93
2019-03-18T23:29:24.643Z,12.83
2019-03-18T23:31:57.013Z,12.40
2019-03-18T23:34:26.171Z,10.77
2019-03-18T23:36:55.456Z,11.53
2019-03-18T23:39:24.779Z,10.90
2019-03-18T23:41:55.205Z,14.73
2019-03-18T23:44:24.574Z,13.80
2019-03-18T23:46:53.800Z,8.87
2019-03-18T23:49:23.159Z,10.80
2019-03-18T23:51:52.719Z,10.47
2019-03-18T23:54:22.085Z,9.10
2019-03-18T23:56:51.443Z,17.73
2019-03-18T23:59:44.327Z,7.90
